sensor_id;sensor_type;location;lat;lon;timestamp;P1;durP1;ratioP1;P2;durP2;ratioP2
84025;SDS011;74110;45.660;25.582;2023-12-07T00:01:20;4.20;;;1.80;;
84025;SDS011;74110;45.660;25.582;2023-12-07T00:03:51;4.20;;;2.40;;
84025;SDS011;74110;45.660;25.582;2023-12-07T00:06:21;4.40;;;1.90;;
84025;SDS011;74110;45.660;25.582;2023-12-07T00:08:52;3.10;;;1.80;;
84025;SDS011;74110;45.660;25.582;2023-12-07T00:11:24;3.80;;;1.50;;
84025;SDS011;74110;45.660;25.582;2023-12-07T00:13:53;2.90;;;1.60;;
84025;SDS011;74110;45.660;25.582;2023-12-07T00:16:22;3.80;;;1.70;;
84025;SDS011;74110;45.660;25.582;2023-12-07T00:18:51;5.60;;;1.80;;
84025;SDS011;74110;45.660;25.582;2023-12-07T00:21:20;3.40;;;1.50;;
84025;SDS011;74110;45.660;25.582;2023-12-07T00:23:50;3.50;;;1.80;;
84025;SDS011;74110;45.660;25.582;2023-12-07T00:26:21;4.40;;;2.10;;
84025;SDS011;74110;45.660;25.582;2023-12-07T00:28:50;3.50;;;1.90;;
84025;SDS011;74110;45.660;25.582;2023-12-07T00:31:20;7.60;;;2.40;;
84025;SDS011;74110;45.660;25.582;2023-12-07T00:33:49;5.40;;;2.50;;
84025;SDS011;74110;45.660;25.582;2023-12-07T00:36:19;7.40;;;2.80;;
84025;SDS011;74110;45.660;25.582;2023-12-07T00:38:49;8.50;;;3.60;;
84025;SDS011;74110;45.660;25.582;2023-12-07T00:41:19;8.70;;;3.40;;
84025;SDS011;74110;45.660;25.582;2023-12-07T00:43:50;5.80;;;2.60;;
84025;SDS011;74110;45.660;25.582;2023-12-07T00:46:21;5.20;;;2.80;;
84025;SDS011;74110;45.660;25.582;2023-12-07T00:48:50;5.00;;;2.30;;
84025;SDS011;74110;45.660;25.582;2023-12-07T00:51:19;5.90;;;3.10;;
84025;SDS011;74110;45.660;25.582;2023-12-07T00:53:48;6.30;;;2.60;;
84025;SDS011;74110;45.660;25.582;2023-12-07T00:56:16;9.10;;;3.60;;
84025;SDS011;74110;45.660;25.582;2023-12-07T00:58:47;4.60;;;2.30;;
84025;SDS011;74110;45.660;25.582;2023-12-07T01:01:16;8.50;;;3.20;;
84025;SDS011;74110;45.660;25.582;2023-12-07T01:03:45;7.10;;;3.40;;
84025;SDS011;74110;45.660;25.582;2023-12-07T01:06:14;4.60;;;1.90;;
84025;SDS011;74110;45.660;25.582;2023-12-07T01:08:46;3.10;;;1.70;;
84025;SDS011;74110;45.660;25.582;2023-12-07T01:11:15;4.40;;;2.00;;
84025;SDS011;74110;45.660;25.582;2023-12-07T01:13:44;3.60;;;1.60;;
84025;SDS011;74110;45.660;25.582;2023-12-07T01:16:14;3.70;;;1.70;;
84025;SDS011;74110;45.660;25.582;2023-12-07T01:18:44;4.90;;;2.00;;
84025;SDS011;74110;45.660;25.582;2023-12-07T01:21:14;4.10;;;1.40;;
84025;SDS011;74110;45.660;25.582;2023-12-07T01:23:45;3.60;;;2.00;;
84025;SDS011;74110;45.660;25.582;2023-12-07T01:26:15;2.40;;;1.20;;
84025;SDS011;74110;45.660;25.582;2023-12-07T01:28:45;2.90;;;1.30;;
84025;SDS011;74110;45.660;25.582;2023-12-07T01:31:17;2.60;;;1.10;;
84025;SDS011;74110;45.660;25.582;2023-12-07T01:33:47;3.00;;;1.40;;
84025;SDS011;74110;45.660;25.582;2023-12-07T01:36:17;1.90;;;0.90;;
84025;SDS011;74110;45.660;25.582;2023-12-07T01:38:47;3.10;;;1.60;;
84025;SDS011;74110;45.660;25.582;2023-12-07T01:41:16;2.90;;;1.50;;
84025;SDS011;74110;45.660;25.582;2023-12-07T01:43:47;4.00;;;2.30;;
84025;SDS011;74110;45.660;25.582;2023-12-07T01:46:18;3.60;;;1.70;;
84025;SDS011;74110;45.660;25.582;2023-12-07T01:48:47;4.30;;;1.70;;
84025;SDS011;74110;45.660;25.582;2023-12-07T01:51:19;2.10;;;1.20;;
84025;SDS011;74110;45.660;25.582;2023-12-07T01:53:50;3.20;;;1.50;;
84025;SDS011;74110;45.660;25.582;2023-12-07T01:56:20;4.30;;;1.60;;
84025;SDS011;74110;45.660;25.582;2023-12-07T01:58:54;3.30;;;1.50;;
84025;SDS011;74110;45.660;25.582;2023-12-07T02:01:25;3.40;;;1.70;;
84025;SDS011;74110;45.660;25.582;2023-12-07T02:03:55;3.70;;;1.70;;
84025;SDS011;74110;45.660;25.582;2023-12-07T02:06:25;2.90;;;1.60;;
84025;SDS011;74110;45.660;25.582;2023-12-07T02:08:55;2.70;;;1.60;;
84025;SDS011;74110;45.660;25.582;2023-12-07T02:11:25;4.20;;;1.90;;
84025;SDS011;74110;45.660;25.582;2023-12-07T02:13:54;3.40;;;1.40;;
84025;SDS011;74110;45.660;25.582;2023-12-07T02:21:56;5.40;;;1.70;;
84025;SDS011;74110;45.660;25.582;2023-12-07T02:24:33;3.50;;;1.90;;
84025;SDS011;74110;45.660;25.582;2023-12-07T02:27:06;3.20;;;1.40;;
84025;SDS011;74110;45.660;25.582;2023-12-07T02:29:35;2.70;;;1.20;;
84025;SDS011;74110;45.660;25.582;2023-12-07T02:32:05;2.70;;;1.30;;
84025;SDS011;74110;45.660;25.582;2023-12-07T02:34:36;3.30;;;1.70;;
84025;SDS011;74110;45.660;25.582;2023-12-07T02:37:04;2.10;;;0.70;;
84025;SDS011;74110;45.660;25.582;2023-12-07T02:39:36;2.30;;;0.90;;
84025;SDS011;74110;45.660;25.582;2023-12-07T02:42:07;2.40;;;1.20;;
84025;SDS011;74110;45.660;25.582;2023-12-07T02:44:37;3.20;;;1.40;;
84025;SDS011;74110;45.660;25.582;2023-12-07T02:47:07;2.40;;;1.10;;
84025;SDS011;74110;45.660;25.582;2023-12-07T02:49:36;2.60;;;1.10;;
84025;SDS011;74110;45.660;25.582;2023-12-07T02:52:06;7.10;;;1.80;;
84025;SDS011;74110;45.660;25.582;2023-12-07T02:54:35;3.60;;;1.10;;
84025;SDS011;74110;45.660;25.582;2023-12-07T02:57:04;4.50;;;1.80;;
84025;SDS011;74110;45.660;25.582;2023-12-07T02:59:33;5.30;;;2.20;;
84025;SDS011;74110;45.660;25.582;2023-12-07T03:02:04;3.40;;;1.70;;
84025;SDS011;74110;45.660;25.582;2023-12-07T03:04:34;3.50;;;1.50;;
84025;SDS011;74110;45.660;25.582;2023-12-07T03:07:03;2.50;;;1.40;;
84025;SDS011;74110;45.660;25.582;2023-12-07T03:09:33;3.70;;;1.70;;
84025;SDS011;74110;45.660;25.582;2023-12-07T03:12:03;5.60;;;2.00;;
84025;SDS011;74110;45.660;25.582;2023-12-07T03:14:33;3.80;;;2.00;;
84025;SDS011;74110;45.660;25.582;2023-12-07T03:17:02;5.30;;;2.10;;
84025;SDS011;74110;45.660;25.582;2023-12-07T03:19:37;3.80;;;1.70;;
84025;SDS011;74110;45.660;25.582;2023-12-07T03:22:08;3.90;;;1.80;;
84025;SDS011;74110;45.660;25.582;2023-12-07T03:24:38;3.80;;;1.40;;
84025;SDS011;74110;45.660;25.582;2023-12-07T03:27:09;3.00;;;1.50;;
84025;SDS011;74110;45.660;25.582;2023-12-07T03:29:38;5.20;;;2.60;;
84025;SDS011;74110;45.660;25.582;2023-12-07T03:32:08;4.00;;;2.20;;
84025;SDS011;74110;45.660;25.582;2023-12-07T03:34:38;4.50;;;2.10;;
84025;SDS011;74110;45.660;25.582;2023-12-07T03:37:08;4.40;;;2.20;;
84025;SDS011;74110;45.660;25.582;2023-12-07T03:39:37;3.90;;;2.00;;
84025;SDS011;74110;45.660;25.582;2023-12-07T03:42:07;4.60;;;1.90;;
84025;SDS011;74110;45.660;25.582;2023-12-07T03:44:56;6.60;;;2.70;;
84025;SDS011;74110;45.660;25.582;2023-12-07T03:47:25;6.40;;;2.80;;
84025;SDS011;74110;45.660;25.582;2023-12-07T03:49:55;5.70;;;2.60;;
84025;SDS011;74110;45.660;25.582;2023-12-07T03:52:26;9.60;;;2.70;;
84025;SDS011;74110;45.660;25.582;2023-12-07T03:54:56;7.10;;;2.50;;
84025;SDS011;74110;45.660;25.582;2023-12-07T03:57:25;4.80;;;2.00;;
84025;SDS011;74110;45.660;25.582;2023-12-07T03:59:54;3.90;;;1.80;;
84025;SDS011;74110;45.660;25.582;2023-12-07T04:02:24;5.70;;;2.40;;
84025;SDS011;74110;45.660;25.582;2023-12-07T04:04:54;4.50;;;2.20;;
84025;SDS011;74110;45.660;25.582;2023-12-07T04:07:23;3.20;;;1.50;;
84025;SDS011;74110;45.660;25.582;2023-12-07T04:09:53;4.90;;;2.10;;
84025;SDS011;74110;45.660;25.582;2023-12-07T04:12:21;4.40;;;1.80;;
84025;SDS011;74110;45.660;25.582;2023-12-07T04:14:52;4.30;;;2.20;;
84025;SDS011;74110;45.660;25.582;2023-12-07T04:17:22;3.70;;;1.80;;
84025;SDS011;74110;45.660;25.582;2023-12-07T04:19:51;5.60;;;2.40;;
84025;SDS011;74110;45.660;25.582;2023-12-07T04:22:21;5.20;;;1.90;;
84025;SDS011;74110;45.660;25.582;2023-12-07T04:24:51;6.70;;;2.50;;
84025;SDS011;74110;45.660;25.582;2023-12-07T04:27:19;5.30;;;2.10;;
84025;SDS011;74110;45.660;25.582;2023-12-07T04:29:49;4.20;;;2.10;;
84025;SDS011;74110;45.660;25.582;2023-12-07T04:32:19;4.50;;;2.30;;
84025;SDS011;74110;45.660;25.582;2023-12-07T04:34:49;5.10;;;2.50;;
84025;SDS011;74110;45.660;25.582;2023-12-07T04:37:18;5.20;;;2.50;;
84025;SDS011;74110;45.660;25.582;2023-12-07T04:39:47;5.60;;;2.90;;
84025;SDS011;74110;45.660;25.582;2023-12-07T04:42:17;6.60;;;2.40;;
84025;SDS011;74110;45.660;25.582;2023-12-07T04:44:46;6.10;;;2.40;;
84025;SDS011;74110;45.660;25.582;2023-12-07T04:47:18;5.50;;;2.70;;
84025;SDS011;74110;45.660;25.582;2023-12-07T04:49:47;5.20;;;2.50;;
84025;SDS011;74110;45.660;25.582;2023-12-07T04:52:18;7.20;;;2.70;;
84025;SDS011;74110;45.660;25.582;2023-12-07T04:54:48;10.50;;;3.10;;
84025;SDS011;74110;45.660;25.582;2023-12-07T04:57:18;6.80;;;2.80;;
84025;SDS011;74110;45.660;25.582;2023-12-07T04:59:47;6.30;;;3.30;;
84025;SDS011;74110;45.660;25.582;2023-12-07T05:02:18;7.30;;;2.90;;
84025;SDS011;74110;45.660;25.582;2023-12-07T05:04:49;7.40;;;2.70;;
84025;SDS011;74110;45.660;25.582;2023-12-07T05:07:18;7.30;;;2.10;;
84025;SDS011;74110;45.660;25.582;2023-12-07T05:09:49;9.80;;;2.30;;
84025;SDS011;74110;45.660;25.582;2023-12-07T05:12:21;5.50;;;2.60;;
84025;SDS011;74110;45.660;25.582;2023-12-07T05:14:51;10.00;;;2.70;;
84025;SDS011;74110;45.660;25.582;2023-12-07T05:17:21;6.80;;;3.20;;
84025;SDS011;74110;45.660;25.582;2023-12-07T05:19:51;6.40;;;2.80;;
84025;SDS011;74110;45.660;25.582;2023-12-07T05:22:20;5.20;;;2.50;;
84025;SDS011;74110;45.660;25.582;2023-12-07T05:24:52;8.00;;;3.80;;
84025;SDS011;74110;45.660;25.582;2023-12-07T05:27:21;6.80;;;2.50;;
84025;SDS011;74110;45.660;25.582;2023-12-07T05:29:50;6.40;;;3.40;;
84025;SDS011;74110;45.660;25.582;2023-12-07T05:32:19;6.20;;;3.00;;
84025;SDS011;74110;45.660;25.582;2023-12-07T05:34:50;6.50;;;3.30;;
84025;SDS011;74110;45.660;25.582;2023-12-07T05:37:20;6.50;;;3.30;;
84025;SDS011;74110;45.660;25.582;2023-12-07T05:39:50;4.60;;;2.20;;
84025;SDS011;74110;45.660;25.582;2023-12-07T05:42:19;5.20;;;2.80;;
84025;SDS011;74110;45.660;25.582;2023-12-07T05:44:51;6.90;;;3.70;;
84025;SDS011;74110;45.660;25.582;2023-12-07T05:47:21;8.20;;;4.10;;
84025;SDS011;74110;45.660;25.582;2023-12-07T05:49:53;7.60;;;3.30;;
84025;SDS011;74110;45.660;25.582;2023-12-07T05:52:29;2.90;;;1.70;;
84025;SDS011;74110;45.660;25.582;2023-12-07T05:55:00;6.90;;;3.10;;
84025;SDS011;74110;45.660;25.582;2023-12-07T05:57:30;6.30;;;3.20;;
84025;SDS011;74110;45.660;25.582;2023-12-07T06:00:00;5.60;;;3.00;;
84025;SDS011;74110;45.660;25.582;2023-12-07T06:02:39;5.80;;;3.20;;
84025;SDS011;74110;45.660;25.582;2023-12-07T06:05:10;6.20;;;2.90;;
84025;SDS011;74110;45.660;25.582;2023-12-07T06:10:15;8.90;;;4.20;;
84025;SDS011;74110;45.660;25.582;2023-12-07T06:12:46;8.70;;;4.40;;
84025;SDS011;74110;45.660;25.582;2023-12-07T06:15:18;6.80;;;3.40;;
84025;SDS011;74110;45.660;25.582;2023-12-07T06:20:23;5.20;;;2.70;;
84025;SDS011;74110;45.660;25.582;2023-12-07T06:22:57;7.20;;;2.90;;
84025;SDS011;74110;45.660;25.582;2023-12-07T06:25:32;10.90;;;3.90;;
84025;SDS011;74110;45.660;25.582;2023-12-07T06:28:12;3.60;;;1.80;;
84025;SDS011;74110;45.660;25.582;2023-12-07T06:31:26;4.90;;;3.00;;
84025;SDS011;74110;45.660;25.582;2023-12-07T06:34:42;8.40;;;4.40;;
84025;SDS011;74110;45.660;25.582;2023-12-07T06:40:55;4.40;;;2.00;;
84025;SDS011;74110;45.660;25.582;2023-12-07T06:46:02;4.70;;;2.70;;
84025;SDS011;74110;45.660;25.582;2023-12-07T06:48:37;5.00;;;3.00;;
84025;SDS011;74110;45.660;25.582;2023-12-07T06:51:14;5.50;;;2.40;;
84025;SDS011;74110;45.660;25.582;2023-12-07T06:53:45;12.70;;;4.90;;
84025;SDS011;74110;45.660;25.582;2023-12-07T06:56:18;10.10;;;4.20;;
84025;SDS011;74110;45.660;25.582;2023-12-07T06:58:48;9.30;;;4.10;;
84025;SDS011;74110;45.660;25.582;2023-12-07T07:01:18;8.10;;;4.10;;
84025;SDS011;74110;45.660;25.582;2023-12-07T07:03:50;7.90;;;4.00;;
84025;SDS011;74110;45.660;25.582;2023-12-07T07:06:25;7.00;;;3.00;;
84025;SDS011;74110;45.660;25.582;2023-12-07T07:08:54;8.50;;;4.20;;
84025;SDS011;74110;45.660;25.582;2023-12-07T07:11:34;4.90;;;2.30;;
84025;SDS011;74110;45.660;25.582;2023-12-07T07:14:03;8.80;;;3.50;;
84025;SDS011;74110;45.660;25.582;2023-12-07T07:16:33;7.90;;;3.90;;
84025;SDS011;74110;45.660;25.582;2023-12-07T07:19:04;9.60;;;4.00;;
84025;SDS011;74110;45.660;25.582;2023-12-07T07:21:34;6.70;;;3.80;;
84025;SDS011;74110;45.660;25.582;2023-12-07T07:24:03;6.50;;;3.20;;
84025;SDS011;74110;45.660;25.582;2023-12-07T07:26:35;8.00;;;4.40;;
84025;SDS011;74110;45.660;25.582;2023-12-07T07:29:04;8.70;;;5.10;;
84025;SDS011;74110;45.660;25.582;2023-12-07T07:31:39;11.60;;;5.40;;
84025;SDS011;74110;45.660;25.582;2023-12-07T07:34:08;10.90;;;5.10;;
84025;SDS011;74110;45.660;25.582;2023-12-07T07:37:05;11.00;;;5.30;;
84025;SDS011;74110;45.660;25.582;2023-12-07T07:39:55;6.80;;;3.90;;
84025;SDS011;74110;45.660;25.582;2023-12-07T07:42:25;10.50;;;4.90;;
84025;SDS011;74110;45.660;25.582;2023-12-07T07:44:55;10.70;;;4.80;;
84025;SDS011;74110;45.660;25.582;2023-12-07T07:47:27;11.60;;;5.40;;
84025;SDS011;74110;45.660;25.582;2023-12-07T07:49:56;5.50;;;2.90;;
84025;SDS011;74110;45.660;25.582;2023-12-07T07:52:33;5.90;;;3.10;;
84025;SDS011;74110;45.660;25.582;2023-12-07T07:55:03;9.70;;;4.00;;
84025;SDS011;74110;45.660;25.582;2023-12-07T07:57:38;11.10;;;5.30;;
84025;SDS011;74110;45.660;25.582;2023-12-07T08:00:11;6.20;;;2.30;;
84025;SDS011;74110;45.660;25.582;2023-12-07T08:02:41;7.20;;;3.70;;
84025;SDS011;74110;45.660;25.582;2023-12-07T08:06:46;7.00;;;3.70;;
84025;SDS011;74110;45.660;25.582;2023-12-07T08:09:16;6.40;;;3.50;;
84025;SDS011;74110;45.660;25.582;2023-12-07T08:11:48;4.50;;;2.50;;
84025;SDS011;74110;45.660;25.582;2023-12-07T08:14:17;4.80;;;3.10;;
84025;SDS011;74110;45.660;25.582;2023-12-07T08:16:47;5.00;;;2.30;;
84025;SDS011;74110;45.660;25.582;2023-12-07T08:19:16;5.10;;;2.40;;
84025;SDS011;74110;45.660;25.582;2023-12-07T08:21:45;6.00;;;3.10;;
84025;SDS011;74110;45.660;25.582;2023-12-07T08:24:14;3.60;;;2.40;;
84025;SDS011;74110;45.660;25.582;2023-12-07T08:26:46;7.20;;;3.90;;
84025;SDS011;74110;45.660;25.582;2023-12-07T08:29:15;7.30;;;3.80;;
84025;SDS011;74110;45.660;25.582;2023-12-07T08:31:46;10.30;;;5.00;;
84025;SDS011;74110;45.660;25.582;2023-12-07T08:34:16;9.60;;;5.40;;
84025;SDS011;74110;45.660;25.582;2023-12-07T08:36:59;9.00;;;4.80;;
84025;SDS011;74110;45.660;25.582;2023-12-07T08:39:29;8.00;;;4.50;;
84025;SDS011;74110;45.660;25.582;2023-12-07T08:42:02;8.90;;;4.60;;
84025;SDS011;74110;45.660;25.582;2023-12-07T08:44:32;7.70;;;4.00;;
84025;SDS011;74110;45.660;25.582;2023-12-07T08:47:01;8.30;;;4.40;;
84025;SDS011;74110;45.660;25.582;2023-12-07T08:49:31;12.10;;;4.80;;
84025;SDS011;74110;45.660;25.582;2023-12-07T08:52:02;8.10;;;4.60;;
84025;SDS011;74110;45.660;25.582;2023-12-07T08:55:15;9.60;;;5.70;;
84025;SDS011;74110;45.660;25.582;2023-12-07T08:57:52;11.20;;;5.00;;
84025;SDS011;74110;45.660;25.582;2023-12-07T09:00:43;9.40;;;5.70;;
84025;SDS011;74110;45.660;25.582;2023-12-07T09:03:20;13.10;;;5.00;;
84025;SDS011;74110;45.660;25.582;2023-12-07T09:05:58;12.10;;;6.30;;
84025;SDS011;74110;45.660;25.582;2023-12-07T09:09:11;8.90;;;5.00;;
84025;SDS011;74110;45.660;25.582;2023-12-07T09:11:40;9.30;;;5.00;;
84025;SDS011;74110;45.660;25.582;2023-12-07T09:14:09;10.40;;;5.10;;
84025;SDS011;74110;45.660;25.582;2023-12-07T09:16:45;9.00;;;5.10;;
84025;SDS011;74110;45.660;25.582;2023-12-07T09:19:20;8.50;;;4.50;;
84025;SDS011;74110;45.660;25.582;2023-12-07T09:21:51;7.30;;;4.70;;
84025;SDS011;74110;45.660;25.582;2023-12-07T09:24:20;8.80;;;5.50;;
84025;SDS011;74110;45.660;25.582;2023-12-07T09:26:50;8.90;;;4.90;;
84025;SDS011;74110;45.660;25.582;2023-12-07T09:29:20;9.80;;;4.10;;
84025;SDS011;74110;45.660;25.582;2023-12-07T09:31:51;8.60;;;4.90;;
84025;SDS011;74110;45.660;25.582;2023-12-07T09:34:22;9.20;;;4.60;;
84025;SDS011;74110;45.660;25.582;2023-12-07T09:37:04;8.80;;;4.60;;
84025;SDS011;74110;45.660;25.582;2023-12-07T09:39:37;9.00;;;4.70;;
84025;SDS011;74110;45.660;25.582;2023-12-07T09:42:07;10.20;;;4.60;;
84025;SDS011;74110;45.660;25.582;2023-12-07T09:44:37;9.20;;;4.80;;
84025;SDS011;74110;45.660;25.582;2023-12-07T09:47:11;7.70;;;4.40;;
84025;SDS011;74110;45.660;25.582;2023-12-07T09:52:15;11.40;;;5.80;;
84025;SDS011;74110;45.660;25.582;2023-12-07T09:55:07;11.50;;;6.20;;
84025;SDS011;74110;45.660;25.582;2023-12-07T09:57:41;10.90;;;6.00;;
84025;SDS011;74110;45.660;25.582;2023-12-07T10:00:12;9.00;;;5.10;;
84025;SDS011;74110;45.660;25.582;2023-12-07T10:03:20;12.90;;;6.10;;
84025;SDS011;74110;45.660;25.582;2023-12-07T10:05:53;10.20;;;4.80;;
84025;SDS011;74110;45.660;25.582;2023-12-07T10:08:32;7.30;;;3.80;;
84025;SDS011;74110;45.660;25.582;2023-12-07T10:11:09;9.90;;;5.60;;
84025;SDS011;74110;45.660;25.582;2023-12-07T10:13:44;9.10;;;4.40;;
84025;SDS011;74110;45.660;25.582;2023-12-07T10:16:15;9.20;;;4.60;;
84025;SDS011;74110;45.660;25.582;2023-12-07T10:18:54;8.90;;;5.30;;
84025;SDS011;74110;45.660;25.582;2023-12-07T10:21:34;7.60;;;4.40;;
84025;SDS011;74110;45.660;25.582;2023-12-07T10:24:03;7.70;;;4.30;;
84025;SDS011;74110;45.660;25.582;2023-12-07T10:26:34;7.80;;;4.30;;
84025;SDS011;74110;45.660;25.582;2023-12-07T10:29:09;16.90;;;9.40;;
84025;SDS011;74110;45.660;25.582;2023-12-07T10:32:03;14.40;;;7.90;;
84025;SDS011;74110;45.660;25.582;2023-12-07T10:34:33;9.20;;;5.40;;
84025;SDS011;74110;45.660;25.582;2023-12-07T10:37:07;13.00;;;6.10;;
84025;SDS011;74110;45.660;25.582;2023-12-07T10:39:37;11.20;;;5.50;;
84025;SDS011;74110;45.660;25.582;2023-12-07T10:42:09;8.30;;;4.50;;
84025;SDS011;74110;45.660;25.582;2023-12-07T10:44:53;13.20;;;5.60;;
84025;SDS011;74110;45.660;25.582;2023-12-07T10:47:28;8.60;;;4.80;;
84025;SDS011;74110;45.660;25.582;2023-12-07T10:50:05;6.30;;;3.90;;
84025;SDS011;74110;45.660;25.582;2023-12-07T10:52:51;7.10;;;3.40;;
84025;SDS011;74110;45.660;25.582;2023-12-07T10:55:28;7.10;;;4.20;;
84025;SDS011;74110;45.660;25.582;2023-12-07T10:58:08;6.00;;;4.10;;
84025;SDS011;74110;45.660;25.582;2023-12-07T11:00:43;7.10;;;3.80;;
84025;SDS011;74110;45.660;25.582;2023-12-07T11:03:22;5.60;;;3.40;;
84025;SDS011;74110;45.660;25.582;2023-12-07T11:09:06;5.20;;;3.40;;
84025;SDS011;74110;45.660;25.582;2023-12-07T11:12:01;9.00;;;4.50;;
84025;SDS011;74110;45.660;25.582;2023-12-07T11:14:36;9.30;;;5.10;;
84025;SDS011;74110;45.660;25.582;2023-12-07T11:17:09;6.10;;;4.30;;
84025;SDS011;74110;45.660;25.582;2023-12-07T11:22:15;7.40;;;4.30;;
84025;SDS011;74110;45.660;25.582;2023-12-07T11:24:51;7.90;;;4.60;;
84025;SDS011;74110;45.660;25.582;2023-12-07T11:27:25;6.30;;;4.00;;
84025;SDS011;74110;45.660;25.582;2023-12-07T11:30:07;9.30;;;4.70;;
84025;SDS011;74110;45.660;25.582;2023-12-07T11:32:56;7.80;;;4.40;;
84025;SDS011;74110;45.660;25.582;2023-12-07T11:38:39;7.10;;;3.90;;
84025;SDS011;74110;45.660;25.582;2023-12-07T11:41:30;8.50;;;4.50;;
84025;SDS011;74110;45.660;25.582;2023-12-07T11:44:36;7.10;;;4.00;;
84025;SDS011;74110;45.660;25.582;2023-12-07T11:47:33;22.00;;;8.10;;
84025;SDS011;74110;45.660;25.582;2023-12-07T11:50:03;14.40;;;8.00;;
84025;SDS011;74110;45.660;25.582;2023-12-07T11:53:02;10.10;;;5.40;;
84025;SDS011;74110;45.660;25.582;2023-12-07T11:56:07;9.40;;;5.20;;
84025;SDS011;74110;45.660;25.582;2023-12-07T11:58:39;7.20;;;4.30;;
84025;SDS011;74110;45.660;25.582;2023-12-07T12:01:09;15.70;;;7.30;;
84025;SDS011;74110;45.660;25.582;2023-12-07T12:03:43;21.50;;;9.30;;
84025;SDS011;74110;45.660;25.582;2023-12-07T12:06:21;12.80;;;6.40;;
84025;SDS011;74110;45.660;25.582;2023-12-07T12:08:56;5.90;;;3.70;;
84025;SDS011;74110;45.660;25.582;2023-12-07T12:11:30;6.70;;;3.60;;
84025;SDS011;74110;45.660;25.582;2023-12-07T12:14:00;6.40;;;3.70;;
84025;SDS011;74110;45.660;25.582;2023-12-07T12:16:31;3.70;;;2.50;;
84025;SDS011;74110;45.660;25.582;2023-12-07T12:19:02;8.60;;;4.60;;
84025;SDS011;74110;45.660;25.582;2023-12-07T12:21:37;7.80;;;3.30;;
84025;SDS011;74110;45.660;25.582;2023-12-07T12:24:11;6.50;;;3.20;;
84025;SDS011;74110;45.660;25.582;2023-12-07T12:26:42;6.30;;;3.30;;
84025;SDS011;74110;45.660;25.582;2023-12-07T12:29:14;12.70;;;7.10;;
84025;SDS011;74110;45.660;25.582;2023-12-07T12:31:55;9.00;;;4.90;;
84025;SDS011;74110;45.660;25.582;2023-12-07T12:34:25;9.30;;;5.00;;
84025;SDS011;74110;45.660;25.582;2023-12-07T12:36:56;5.50;;;3.50;;
84025;SDS011;74110;45.660;25.582;2023-12-07T12:39:28;5.20;;;3.10;;
84025;SDS011;74110;45.660;25.582;2023-12-07T12:42:02;7.60;;;4.50;;
84025;SDS011;74110;45.660;25.582;2023-12-07T12:44:33;11.50;;;4.60;;
84025;SDS011;74110;45.660;25.582;2023-12-07T12:47:06;7.60;;;3.70;;
84025;SDS011;74110;45.660;25.582;2023-12-07T12:49:38;6.70;;;3.70;;
84025;SDS011;74110;45.660;25.582;2023-12-07T12:52:15;6.30;;;3.40;;
84025;SDS011;74110;45.660;25.582;2023-12-07T12:54:45;5.30;;;3.10;;
84025;SDS011;74110;45.660;25.582;2023-12-07T12:57:15;6.60;;;3.90;;
84025;SDS011;74110;45.660;25.582;2023-12-07T12:59:47;5.20;;;3.20;;
84025;SDS011;74110;45.660;25.582;2023-12-07T13:02:16;5.50;;;2.90;;
84025;SDS011;74110;45.660;25.582;2023-12-07T13:04:46;6.20;;;3.20;;
84025;SDS011;74110;45.660;25.582;2023-12-07T13:07:19;4.80;;;2.50;;
84025;SDS011;74110;45.660;25.582;2023-12-07T13:09:48;4.30;;;3.00;;
84025;SDS011;74110;45.660;25.582;2023-12-07T13:12:17;6.10;;;2.70;;
84025;SDS011;74110;45.660;25.582;2023-12-07T13:14:47;4.50;;;3.20;;
84025;SDS011;74110;45.660;25.582;2023-12-07T13:17:17;5.50;;;2.40;;
84025;SDS011;74110;45.660;25.582;2023-12-07T13:19:47;5.90;;;2.90;;
84025;SDS011;74110;45.660;25.582;2023-12-07T13:22:17;8.00;;;3.70;;
84025;SDS011;74110;45.660;25.582;2023-12-07T13:24:47;8.20;;;3.90;;
84025;SDS011;74110;45.660;25.582;2023-12-07T13:27:18;11.40;;;5.10;;
84025;SDS011;74110;45.660;25.582;2023-12-07T13:29:48;11.30;;;5.10;;
84025;SDS011;74110;45.660;25.582;2023-12-07T13:32:19;7.00;;;3.60;;
84025;SDS011;74110;45.660;25.582;2023-12-07T13:34:48;6.80;;;3.50;;
84025;SDS011;74110;45.660;25.582;2023-12-07T13:37:17;13.50;;;3.60;;
84025;SDS011;74110;45.660;25.582;2023-12-07T13:39:48;7.00;;;3.20;;
84025;SDS011;74110;45.660;25.582;2023-12-07T13:42:25;5.80;;;2.90;;
84025;SDS011;74110;45.660;25.582;2023-12-07T13:44:56;5.80;;;2.80;;
84025;SDS011;74110;45.660;25.582;2023-12-07T13:47:26;4.80;;;2.90;;
84025;SDS011;74110;45.660;25.582;2023-12-07T13:50:15;5.00;;;3.00;;
84025;SDS011;74110;45.660;25.582;2023-12-07T13:52:45;6.10;;;3.30;;
84025;SDS011;74110;45.660;25.582;2023-12-07T13:55:14;5.60;;;3.10;;
84025;SDS011;74110;45.660;25.582;2023-12-07T13:57:43;7.60;;;4.10;;
84025;SDS011;74110;45.660;25.582;2023-12-07T14:00:12;7.70;;;3.40;;
84025;SDS011;74110;45.660;25.582;2023-12-07T14:02:45;7.50;;;3.20;;
84025;SDS011;74110;45.660;25.582;2023-12-07T14:05:15;9.70;;;3.30;;
84025;SDS011;74110;45.660;25.582;2023-12-07T14:07:50;5.70;;;3.60;;
84025;SDS011;74110;45.660;25.582;2023-12-07T14:10:20;6.90;;;3.80;;
84025;SDS011;74110;45.660;25.582;2023-12-07T14:12:50;5.30;;;2.90;;
84025;SDS011;74110;45.660;25.582;2023-12-07T14:15:19;4.50;;;2.50;;
84025;SDS011;74110;45.660;25.582;2023-12-07T14:20:37;5.70;;;3.10;;
84025;SDS011;74110;45.660;25.582;2023-12-07T14:23:09;5.70;;;3.10;;
84025;SDS011;74110;45.660;25.582;2023-12-07T14:25:39;9.10;;;3.90;;
84025;SDS011;74110;45.660;25.582;2023-12-07T14:28:09;6.30;;;3.50;;
84025;SDS011;74110;45.660;25.582;2023-12-07T14:30:38;7.90;;;3.80;;
84025;SDS011;74110;45.660;25.582;2023-12-07T14:33:07;7.80;;;3.50;;
84025;SDS011;74110;45.660;25.582;2023-12-07T14:35:38;6.60;;;3.50;;
84025;SDS011;74110;45.660;25.582;2023-12-07T14:38:07;5.80;;;3.50;;
84025;SDS011;74110;45.660;25.582;2023-12-07T14:40:36;11.20;;;5.20;;
84025;SDS011;74110;45.660;25.582;2023-12-07T14:43:05;8.90;;;5.00;;
84025;SDS011;74110;45.660;25.582;2023-12-07T14:45:34;10.10;;;6.50;;
84025;SDS011;74110;45.660;25.582;2023-12-07T14:48:04;9.40;;;5.60;;
84025;SDS011;74110;45.660;25.582;2023-12-07T14:50:33;10.20;;;5.10;;
84025;SDS011;74110;45.660;25.582;2023-12-07T14:53:03;9.10;;;5.80;;
84025;SDS011;74110;45.660;25.582;2023-12-07T14:55:34;11.10;;;6.20;;
84025;SDS011;74110;45.660;25.582;2023-12-07T14:58:04;8.50;;;4.80;;
84025;SDS011;74110;45.660;25.582;2023-12-07T15:00:34;9.40;;;4.80;;
84025;SDS011;74110;45.660;25.582;2023-12-07T15:03:03;6.60;;;3.60;;
84025;SDS011;74110;45.660;25.582;2023-12-07T15:05:32;7.70;;;3.30;;
84025;SDS011;74110;45.660;25.582;2023-12-07T15:08:01;4.40;;;2.70;;
84025;SDS011;74110;45.660;25.582;2023-12-07T15:10:32;5.60;;;2.70;;
84025;SDS011;74110;45.660;25.582;2023-12-07T15:13:01;5.30;;;2.90;;
84025;SDS011;74110;45.660;25.582;2023-12-07T15:15:31;8.60;;;4.20;;
84025;SDS011;74110;45.660;25.582;2023-12-07T15:18:01;6.20;;;3.60;;
84025;SDS011;74110;45.660;25.582;2023-12-07T15:20:30;5.70;;;3.50;;
84025;SDS011;74110;45.660;25.582;2023-12-07T15:22:59;5.70;;;3.30;;
84025;SDS011;74110;45.660;25.582;2023-12-07T15:25:28;6.00;;;3.70;;
84025;SDS011;74110;45.660;25.582;2023-12-07T15:27:58;6.80;;;4.10;;
84025;SDS011;74110;45.660;25.582;2023-12-07T15:30:27;6.10;;;2.90;;
84025;SDS011;74110;45.660;25.582;2023-12-07T15:32:58;6.20;;;3.20;;
84025;SDS011;74110;45.660;25.582;2023-12-07T15:35:28;8.00;;;3.80;;
84025;SDS011;74110;45.660;25.582;2023-12-07T15:37:58;9.30;;;4.60;;